createdAt,value
2018-12-24T00:01:13.054Z,3.23
2018-12-24T00:03:43.960Z,3.60
2018-12-24T00:06:14.436Z,3.10
2018-12-24T00:09:16.071Z,3.20
2018-12-24T00:11:46.925Z,2.90
2018-12-24T00:14:17.371Z,3.30
2018-12-24T00:16:47.881Z,3.40
2018-12-24T00:19:18.769Z,3.47
2018-12-24T00:21:49.570Z,4.10
2018-12-24T00:24:20.081Z,3.50
2018-12-24T00:26:50.920Z,3.30
2018-12-24T00:29:21.389Z,3.70
2018-12-24T00:32:11.378Z,4.30
2018-12-24T00:35:01.326Z,4.53
2018-12-24T00:37:32.146Z,4.23
2018-12-24T00:40:03.549Z,4.43
2018-12-24T00:42:53.874Z,4.43
2018-12-24T00:48:35.407Z,4.57
2018-12-24T00:51:05.851Z,5.07
2018-12-24T00:53:36.341Z,5.27
2018-12-24T00:56:07.393Z,4.90
2018-12-24T00:58:38.788Z,4.93
2018-12-24T01:01:09.268Z,4.33
2018-12-24T01:03:39.786Z,5.10
2018-12-24T01:06:10.639Z,4.70
2018-12-24T01:08:41.528Z,4.63
2018-12-24T01:11:12.384Z,4.80
2018-12-24T01:13:42.848Z,4.53
2018-12-24T01:16:13.299Z,4.77
2018-12-24T01:19:03.247Z,4.03
2018-12-24T01:21:34.484Z,5.13
2018-12-24T01:24:04.958Z,5.03
2018-12-24T01:26:35.493Z,5.47
2018-12-24T01:29:06.289Z,6.00
2018-12-24T01:31:36.732Z,6.03
2018-12-24T01:34:08.964Z,5.87
2018-12-24T01:37:00.622Z,5.73
2018-12-24T01:39:50.553Z,6.50
2018-12-24T01:42:21.413Z,8.10
2018-12-24T01:44:51.902Z,7.40
2018-12-24T01:47:22.766Z,8.33
2018-12-24T01:49:53.569Z,9.73
2018-12-24T01:52:24.024Z,9.87
2018-12-24T01:54:54.507Z,10.60
2018-12-24T01:57:25.029Z,10.90
2018-12-24T01:59:55.902Z,11.00
2018-12-24T02:02:26.398Z,11.33
2018-12-24T02:05:16.354Z,9.80
2018-12-24T02:08:06.270Z,10.00
2018-12-24T02:10:56.227Z,9.50
2018-12-24T02:13:26.658Z,9.93
2018-12-24T02:15:57.171Z,10.50
2018-12-24T02:18:29.351Z,10.53
2018-12-24T02:20:59.802Z,10.57
2018-12-24T02:23:30.286Z,9.73
2018-12-24T02:26:00.730Z,10.30
2018-12-24T02:28:31.234Z,10.30
2018-12-24T02:31:02.101Z,8.87
2018-12-24T02:33:32.707Z,9.70
2018-12-24T02:36:03.576Z,9.03
2018-12-24T02:38:34.030Z,9.80
2018-12-24T02:41:23.986Z,10.50
2018-12-24T02:43:54.443Z,9.33
2018-12-24T02:46:25.049Z,9.90
2018-12-24T02:48:55.887Z,10.30
2018-12-24T02:51:26.336Z,10.50
2018-12-24T02:54:16.312Z,10.20
2018-12-24T02:56:47.126Z,9.40
2018-12-24T02:59:17.575Z,9.17
2018-12-24T03:01:48.075Z,9.53
2018-12-24T03:04:18.526Z,9.50
2018-12-24T03:06:49.402Z,9.03
2018-12-24T03:09:19.849Z,8.70
2018-12-24T03:12:10.173Z,8.50
2018-12-24T03:14:42.534Z,8.40
2018-12-24T03:17:13.024Z,8.33
2018-12-24T03:19:43.468Z,8.00
2018-12-24T03:22:13.906Z,7.10
2018-12-24T03:24:44.379Z,7.50
2018-12-24T03:27:34.451Z,6.83
2018-12-24T03:30:24.410Z,6.60
2018-12-24T03:33:14.319Z,6.67
2018-12-24T03:36:04.271Z,5.70
2018-12-24T03:38:34.702Z,5.87
2018-12-24T03:41:06.956Z,6.83
2018-12-24T03:43:37.811Z,6.30
2018-12-24T03:46:08.251Z,5.70
2018-12-24T03:48:39.078Z,6.40
2018-12-24T03:51:09.508Z,6.50
2018-12-24T03:53:40.280Z,6.03
2018-12-24T03:56:11.200Z,6.10
2018-12-24T03:58:41.650Z,5.63
2018-12-24T04:01:31.940Z,5.50
2018-12-24T04:04:02.738Z,5.10
2018-12-24T04:06:33.172Z,4.73
2018-12-24T04:12:00.217Z,4.63
2018-12-24T04:14:30.858Z,4.30
2018-12-24T04:17:01.293Z,5.00
2018-12-24T04:19:31.720Z,4.60
2018-12-24T04:22:02.572Z,4.50
2018-12-24T04:24:33.008Z,5.10
2018-12-24T04:27:03.491Z,4.53
2018-12-24T04:29:33.932Z,5.37
2018-12-24T04:32:04.372Z,4.27
2018-12-24T04:34:35.235Z,4.67
2018-12-24T04:37:05.668Z,4.50
2018-12-24T04:39:36.496Z,3.47
2018-12-24T04:42:07.219Z,3.43
2018-12-24T04:44:38.061Z,3.57
2018-12-24T04:47:08.524Z,3.13
2018-12-24T04:49:38.953Z,3.10
2018-12-24T04:52:29.056Z,3.10
2018-12-24T04:55:01.365Z,3.47
2018-12-24T04:57:31.802Z,3.80
2018-12-24T05:00:02.267Z,3.40
2018-12-24T05:02:32.809Z,3.30
2018-12-24T05:05:03.297Z,2.90
2018-12-24T05:07:35.452Z,2.70
2018-12-24T05:10:05.891Z,2.30
2018-12-24T05:12:36.358Z,2.50
2018-12-24T05:15:06.792Z,2.53
2018-12-24T05:17:37.272Z,2.50
2018-12-24T05:20:07.699Z,2.60
2018-12-24T05:22:38.489Z,2.93
2018-12-24T05:25:08.961Z,2.90
2018-12-24T05:27:39.400Z,2.90
2018-12-24T05:30:09.891Z,3.00
2018-12-24T05:32:40.324Z,2.70
2018-12-24T05:35:12.480Z,2.77
2018-12-24T05:37:43.309Z,2.80
2018-12-24T05:40:13.750Z,2.90
2018-12-24T05:42:44.631Z,2.97
2018-12-24T05:45:15.393Z,7.97
2018-12-24T05:47:45.845Z,15.57
2018-12-24T05:50:16.349Z,4.30
2018-12-24T05:52:46.757Z,3.63
2018-12-24T05:55:17.220Z,3.40
2018-12-24T05:57:48.052Z,3.60
2018-12-24T06:00:18.485Z,3.53
2018-12-24T06:02:49.042Z,3.20
2018-12-24T06:05:19.486Z,3.37
2018-12-24T06:07:49.999Z,3.23
2018-12-24T06:10:20.490Z,3.43
2018-12-24T06:13:10.402Z,3.50
2018-12-24T06:15:41.221Z,3.83
2018-12-24T06:18:12.061Z,3.40
2018-12-24T06:20:42.894Z,3.70
2018-12-24T06:23:13.354Z,3.70
2018-12-24T06:26:03.266Z,3.80
2018-12-24T06:28:34.079Z,3.80
2018-12-24T06:31:04.534Z,3.63
2018-12-24T06:33:35.129Z,3.27
2018-12-24T06:36:05.591Z,2.93
2018-12-24T06:38:36.033Z,2.97
2018-12-24T06:41:06.536Z,3.00
2018-12-24T06:43:36.997Z,2.80
2018-12-24T06:46:07.413Z,3.47
2018-12-24T06:48:38.047Z,2.70
2018-12-24T06:51:08.640Z,2.53
2018-12-24T06:53:58.589Z,2.67
2018-12-24T06:56:29.105Z,2.83
2018-12-24T06:58:59.552Z,2.90
2018-12-24T07:01:30.401Z,3.17
2018-12-24T07:04:02.556Z,3.20
2018-12-24T07:06:33.048Z,3.40
2018-12-24T07:09:03.556Z,3.73
2018-12-24T07:11:34.374Z,3.80
2018-12-24T07:14:05.168Z,3.73
2018-12-24T07:16:35.604Z,5.50
2018-12-24T07:19:25.561Z,3.67
2018-12-24T07:21:55.997Z,3.90
2018-12-24T07:24:26.433Z,4.30
2018-12-24T07:26:56.900Z,2.90
2018-12-24T07:29:27.336Z,2.00
2018-12-24T07:31:58.173Z,1.50
2018-12-24T07:34:32.575Z,1.70
2018-12-24T07:37:20.909Z,1.90
2018-12-24T07:39:51.358Z,2.03
2018-12-24T07:42:22.696Z,2.17
2018-12-24T07:44:53.161Z,1.80
2018-12-24T07:47:23.594Z,1.87
2018-12-24T07:49:54.089Z,1.90
2018-12-24T07:52:24.520Z,2.37
2018-12-24T07:54:54.956Z,2.00
2018-12-24T07:57:25.421Z,2.00
2018-12-24T07:59:56.230Z,2.10
2018-12-24T08:02:26.738Z,2.30
2018-12-24T08:04:59.244Z,2.40
2018-12-24T08:07:29.690Z,3.20
2018-12-24T08:10:02.272Z,3.27
2018-12-24T08:12:32.708Z,4.33
2018-12-24T08:15:03.176Z,4.73
2018-12-24T08:17:33.609Z,5.10
2018-12-24T08:20:04.121Z,5.10
2018-12-24T08:22:34.561Z,5.00
2018-12-24T08:25:05.374Z,5.50
2018-12-24T08:27:36.181Z,5.40
2018-12-24T08:30:06.878Z,5.47
2018-12-24T08:32:39.089Z,5.20
2018-12-24T08:35:09.524Z,4.70
2018-12-24T08:37:39.969Z,5.13
2018-12-24T08:40:10.502Z,5.37
2018-12-24T08:42:40.945Z,4.10
2018-12-24T08:45:11.432Z,4.40
2018-12-24T08:47:41.872Z,3.80
2018-12-24T08:50:12.709Z,3.00
2018-12-24T08:52:43.175Z,3.23
2018-12-24T08:55:13.613Z,3.10
2018-12-24T08:57:44.096Z,2.70
2018-12-24T09:00:14.548Z,3.10
2018-12-24T09:02:44.996Z,2.50
2018-12-24T09:05:15.464Z,2.57
2018-12-24T09:07:46.229Z,2.80
2018-12-24T09:10:16.721Z,2.27
2018-12-24T09:13:06.948Z,2.63
2018-12-24T09:15:37.428Z,2.63
2018-12-24T09:18:07.876Z,2.27
2018-12-24T09:20:57.831Z,2.20
2018-12-24T09:23:28.272Z,2.40
2018-12-24T09:25:58.701Z,2.73
2018-12-24T09:28:29.168Z,2.90
2018-12-24T09:30:59.609Z,3.70
2018-12-24T09:33:30.137Z,3.60
2018-12-24T09:36:01.276Z,4.23
2018-12-24T09:38:32.112Z,4.10
2018-12-24T09:41:03.013Z,3.10
2018-12-24T09:43:33.446Z,2.97
2018-12-24T09:46:04.324Z,3.10
2018-12-24T09:48:35.061Z,3.87
2018-12-24T09:51:05.494Z,3.53
2018-12-24T09:53:35.958Z,3.73
2018-12-24T09:56:06.761Z,3.20
2018-12-24T09:58:37.239Z,3.17
2018-12-24T10:01:07.713Z,3.67
2018-12-24T10:04:02.815Z,3.70
2018-12-24T10:06:50.204Z,3.07
2018-12-24T10:10:01.781Z,2.60
2018-12-24T10:12:51.694Z,2.93
2018-12-24T10:15:22.177Z,3.60
2018-12-24T10:18:12.086Z,3.50
2018-12-24T10:23:37.515Z,3.27
2018-12-24T10:26:27.443Z,3.30
2018-12-24T10:28:57.880Z,2.90
2018-12-24T10:31:28.323Z,3.70
2018-12-24T10:33:58.814Z,2.70
2018-12-24T10:36:29.255Z,2.73
2018-12-24T10:38:59.686Z,2.90
2018-12-24T10:41:30.154Z,3.00
2018-12-24T10:44:00.592Z,3.10
2018-12-24T10:46:50.521Z,3.13
2018-12-24T10:49:40.432Z,3.03
2018-12-24T10:52:11.270Z,3.37
2018-12-24T10:54:41.705Z,3.37
2018-12-24T10:57:12.142Z,3.73
2018-12-24T10:59:42.601Z,4.00
2018-12-24T11:02:13.147Z,3.87
2018-12-24T11:04:43.700Z,4.10
2018-12-24T11:07:14.768Z,4.53
2018-12-24T11:09:45.204Z,4.23
2018-12-24T11:12:15.666Z,4.50
2018-12-24T11:14:46.097Z,4.37
2018-12-24T11:17:16.577Z,4.60
2018-12-24T11:19:47.012Z,4.40
2018-12-24T11:22:19.159Z,4.57
2018-12-24T11:24:49.625Z,4.67
2018-12-24T11:27:20.061Z,4.57
2018-12-24T11:29:50.887Z,4.90
2018-12-24T11:32:21.321Z,3.80
2018-12-24T11:34:51.762Z,3.87
2018-12-24T11:37:22.225Z,4.37
2018-12-24T11:40:12.125Z,4.20
2018-12-24T11:42:42.618Z,4.63
2018-12-24T11:45:13.056Z,4.73
2018-12-24T11:48:03.017Z,4.23
2018-12-24T11:50:33.462Z,3.63
2018-12-24T11:53:03.893Z,4.07
2018-12-24T11:55:34.352Z,3.70
2018-12-24T11:58:04.796Z,3.67
2018-12-24T12:00:35.319Z,3.80
2018-12-24T12:03:05.757Z,3.93
2018-12-24T12:05:36.205Z,3.33
2018-12-24T12:08:06.670Z,3.60
2018-12-24T12:10:37.101Z,3.70
2018-12-24T12:13:07.904Z,3.63
2018-12-24T12:15:42.741Z,3.10
2018-12-24T12:18:10.852Z,3.33
2018-12-24T12:20:41.313Z,3.40
2018-12-24T12:23:11.745Z,3.30
2018-12-24T12:25:42.753Z,3.23
2018-12-24T12:28:13.693Z,3.23
2018-12-24T12:30:44.492Z,3.30
2018-12-24T12:33:14.983Z,3.70
2018-12-24T12:35:45.486Z,3.67
2018-12-24T12:38:15.926Z,4.43
2018-12-24T12:40:46.411Z,4.50
2018-12-24T12:43:18.555Z,4.20
2018-12-24T12:45:51.413Z,4.27
2018-12-24T12:48:40.660Z,4.30
2018-12-24T12:51:11.104Z,3.73
2018-12-24T12:53:41.543Z,3.43
2018-12-24T12:56:12.024Z,5.00
2018-12-24T12:58:42.462Z,9.30
2018-12-24T13:01:15.024Z,4.13
2018-12-24T13:03:45.925Z,5.00
2018-12-24T13:06:16.366Z,4.50
2018-12-24T13:08:47.233Z,5.17
2018-12-24T13:11:18.050Z,6.17
2018-12-24T13:13:48.488Z,5.03
2018-12-24T13:16:18.926Z,4.60
2018-12-24T13:18:49.417Z,4.40
2018-12-24T13:21:19.917Z,3.90
2018-12-24T13:23:50.350Z,4.53
2018-12-24T13:26:20.833Z,5.10
2018-12-24T13:28:51.631Z,4.60
2018-12-24T13:31:22.073Z,4.00
2018-12-24T13:33:52.964Z,4.00
2018-12-24T13:36:23.395Z,4.07
2018-12-24T13:38:54.128Z,4.20
2018-12-24T13:41:24.615Z,3.97
2018-12-24T13:43:55.049Z,3.47
2018-12-24T13:46:25.522Z,3.70
2018-12-24T13:48:56.010Z,3.70
2018-12-24T13:51:26.446Z,3.77
2018-12-24T13:53:56.877Z,3.40
2018-12-24T13:56:27.352Z,3.47
2018-12-24T13:58:57.784Z,3.50
2018-12-24T14:01:28.248Z,3.23
2018-12-24T14:03:59.149Z,3.60
2018-12-24T14:06:29.580Z,3.20
2018-12-24T14:09:00.404Z,3.40
2018-12-24T14:11:30.893Z,3.40
2018-12-24T14:14:01.412Z,3.17
2018-12-24T14:16:31.850Z,2.93
2018-12-24T14:19:02.411Z,3.27
2018-12-24T14:21:32.844Z,3.57
2018-12-24T14:24:05.012Z,3.47
2018-12-24T14:26:36.160Z,4.00
2018-12-24T14:29:06.598Z,3.27
2018-12-24T14:31:37.043Z,3.77
2018-12-24T14:34:07.529Z,3.20
2018-12-24T14:36:38.096Z,3.63
2018-12-24T14:39:08.692Z,3.73
2018-12-24T14:41:41.325Z,3.50
2018-12-24T14:44:11.763Z,3.70
2018-12-24T14:46:42.594Z,3.37
2018-12-24T14:49:13.096Z,4.10
2018-12-24T14:51:45.236Z,4.03
2018-12-24T14:54:35.186Z,3.60
2018-12-24T14:57:06.012Z,4.37
2018-12-24T14:59:36.453Z,4.13
2018-12-24T15:02:06.983Z,3.80
2018-12-24T15:04:37.420Z,3.97
2018-12-24T15:07:07.868Z,3.90
2018-12-24T15:09:38.425Z,3.97
2018-12-24T15:12:28.340Z,3.40
2018-12-24T15:14:58.830Z,3.47
2018-12-24T15:17:29.267Z,3.23
2018-12-24T15:19:59.705Z,2.93
2018-12-24T15:22:30.181Z,3.20
2018-12-24T15:25:20.087Z,3.50
2018-12-24T15:27:50.569Z,3.47
2018-12-24T15:30:21.012Z,3.40
2018-12-24T15:32:51.448Z,3.20
2018-12-24T15:35:21.929Z,3.40
2018-12-24T15:37:52.360Z,3.80
2018-12-24T15:40:22.795Z,4.00
2018-12-24T15:43:12.862Z,3.40
2018-12-24T15:45:43.265Z,3.83
2018-12-24T15:48:13.713Z,3.90
2018-12-24T15:50:44.587Z,4.00
2018-12-24T15:53:15.033Z,4.07
2018-12-24T15:55:45.757Z,3.50
2018-12-24T15:58:16.230Z,4.00
2018-12-24T16:00:47.025Z,3.97
2018-12-24T16:03:17.865Z,4.17
2018-12-24T16:05:48.297Z,4.60
2018-12-24T16:08:18.732Z,3.63
2018-12-24T16:10:49.604Z,3.57
2018-12-24T16:13:20.402Z,3.70
2018-12-24T16:15:50.843Z,3.83
2018-12-24T16:18:21.317Z,3.83
2018-12-24T16:20:52.101Z,4.47
2018-12-24T16:23:22.698Z,4.40
2018-12-24T16:25:53.173Z,4.27
2018-12-24T16:28:23.624Z,4.57
2018-12-24T16:30:54.077Z,4.53
2018-12-24T16:33:26.258Z,4.43
2018-12-24T16:36:16.478Z,4.17
2018-12-24T16:38:47.315Z,4.23
2018-12-24T16:41:17.759Z,4.43
2018-12-24T16:43:48.196Z,4.63
2018-12-24T16:46:18.655Z,4.80
2018-12-24T16:48:49.086Z,4.63
2018-12-24T16:51:19.560Z,4.77
2018-12-24T16:53:49.999Z,4.73
2018-12-24T16:56:20.823Z,5.13
2018-12-24T16:58:52.051Z,4.83
2018-12-24T17:01:22.496Z,5.43
2018-12-24T17:03:53.001Z,4.90
2018-12-24T17:06:23.435Z,5.70
2018-12-24T17:08:55.591Z,5.07
2018-12-24T17:11:45.521Z,5.63
2018-12-24T17:14:15.959Z,5.60
2018-12-24T17:16:46.442Z,5.73
2018-12-24T17:19:36.661Z,5.30
2018-12-24T17:22:07.436Z,4.87
2018-12-24T17:24:38.231Z,5.77
2018-12-24T17:27:28.517Z,5.57
2018-12-24T17:29:58.960Z,5.03
2018-12-24T17:32:48.912Z,5.23
2018-12-24T17:35:39.205Z,5.70
2018-12-24T17:38:10.063Z,5.70
2018-12-24T17:40:40.888Z,6.03
2018-12-24T17:43:11.378Z,5.93
2018-12-24T17:45:41.815Z,5.47
2018-12-24T17:48:12.255Z,5.97
2018-12-24T17:50:44.428Z,6.07
2018-12-24T17:53:15.180Z,5.70
2018-12-24T17:55:45.676Z,5.57
2018-12-24T17:58:16.756Z,5.53
2018-12-24T18:00:47.201Z,6.47
2018-12-24T18:03:17.697Z,6.13
2018-12-24T18:05:48.130Z,6.13
2018-12-24T18:08:20.332Z,6.37
2018-12-24T18:10:51.157Z,6.53
2018-12-24T18:13:21.610Z,6.03
2018-12-24T18:15:52.084Z,6.67
2018-12-24T18:18:24.696Z,6.40
2018-12-24T18:20:55.181Z,6.33
2018-12-24T18:23:25.624Z,6.97
2018-12-24T18:25:56.062Z,6.30
2018-12-24T18:28:26.535Z,6.80
2018-12-24T18:30:57.553Z,6.73
2018-12-24T18:33:48.626Z,7.30
2018-12-24T18:36:19.711Z,6.70
2018-12-24T18:38:50.162Z,6.80
2018-12-24T18:41:20.631Z,7.20
2018-12-24T18:43:51.064Z,7.57
2018-12-24T18:46:22.246Z,7.47
2018-12-24T18:48:54.392Z,7.43
2018-12-24T18:51:24.829Z,8.10
2018-12-24T18:53:55.307Z,7.80
2018-12-24T18:56:25.740Z,7.40
2018-12-24T18:58:56.229Z,7.60
2018-12-24T19:01:26.733Z,7.83
2018-12-24T19:03:57.606Z,8.27
2018-12-24T19:06:29.791Z,7.50
2018-12-24T19:09:00.619Z,7.57
2018-12-24T19:11:31.452Z,7.30
2018-12-24T19:14:01.896Z,7.90
2018-12-24T19:16:32.331Z,8.23
2018-12-24T19:19:02.807Z,8.13
2018-12-24T19:21:33.255Z,8.17
2018-12-24T19:24:03.748Z,8.53
2018-12-24T19:26:34.188Z,8.63
2018-12-24T19:29:04.634Z,8.57
2018-12-24T19:31:35.097Z,8.60
2018-12-24T19:34:05.941Z,8.47
2018-12-24T19:36:36.777Z,8.60
2018-12-24T19:39:08.012Z,8.87
2018-12-24T19:41:38.445Z,8.57
2018-12-24T19:44:08.919Z,8.83
2018-12-24T19:46:39.363Z,8.10
2018-12-24T19:49:11.569Z,8.43
2018-12-24T19:51:42.482Z,7.97
2018-12-24T19:54:12.933Z,8.17
2018-12-24T19:56:43.398Z,8.13
2018-12-24T19:59:13.850Z,8.23
2018-12-24T20:01:44.334Z,7.50
2018-12-24T20:04:14.807Z,9.07
2018-12-24T20:06:45.258Z,8.53
2018-12-24T20:09:16.374Z,8.13
2018-12-24T20:11:48.495Z,8.20
2018-12-24T20:14:38.869Z,8.97
2018-12-24T20:17:09.759Z,8.70
2018-12-24T20:19:40.577Z,8.97
2018-12-24T20:22:11.021Z,8.17
2018-12-24T20:24:41.548Z,8.03
2018-12-24T20:27:11.992Z,8.27
2018-12-24T20:29:42.431Z,8.63
2018-12-24T20:32:12.922Z,8.27
2018-12-24T20:34:43.374Z,8.10
2018-12-24T20:37:13.818Z,8.90
2018-12-24T20:39:44.636Z,7.63
2018-12-24T20:42:15.076Z,8.90
2018-12-24T20:44:45.517Z,8.50
2018-12-24T20:47:15.991Z,8.80
2018-12-24T20:49:46.633Z,10.00
2018-12-24T20:52:36.580Z,9.73
2018-12-24T20:55:07.032Z,9.03
2018-12-24T20:57:38.219Z,8.83
2018-12-24T21:00:08.908Z,8.37
2018-12-24T21:02:39.345Z,8.90
2018-12-24T21:05:09.842Z,7.67
2018-12-24T21:07:40.301Z,8.17
2018-12-24T21:10:10.808Z,8.00
2018-12-24T21:12:41.258Z,8.00
2018-12-24T21:15:11.716Z,8.47
2018-12-24T21:17:42.183Z,8.73
2018-12-24T21:20:14.348Z,8.37
2018-12-24T21:23:04.315Z,8.60
2018-12-24T21:25:34.766Z,8.17
2018-12-24T21:28:05.213Z,8.20
2018-12-24T21:30:56.042Z,8.23
2018-12-24T21:33:26.489Z,8.73
2018-12-24T21:35:57.377Z,8.33
2018-12-24T21:38:27.818Z,8.27
2018-12-24T21:40:58.258Z,8.37
2018-12-24T21:43:28.725Z,8.30
2018-12-24T21:45:59.169Z,8.37
2018-12-24T21:48:29.679Z,8.20
2018-12-24T21:51:19.586Z,8.50
2018-12-24T21:53:50.081Z,8.63
2018-12-24T21:56:20.529Z,8.33
2018-12-24T21:58:50.976Z,7.97
2018-12-24T22:01:21.448Z,7.27
2018-12-24T22:03:51.917Z,7.70
2018-12-24T22:06:22.413Z,7.90
2018-12-24T22:08:54.926Z,7.47
2018-12-24T22:11:25.449Z,7.63
2018-12-24T22:13:57.638Z,7.97
2018-12-24T22:16:28.085Z,8.03
2018-12-24T22:19:00.286Z,6.93
2018-12-24T22:21:31.200Z,7.60
2018-12-24T22:24:01.640Z,7.10
2018-12-24T22:26:32.462Z,7.13
2018-12-24T22:29:02.900Z,6.77
2018-12-24T22:31:33.389Z,7.90
2018-12-24T22:34:03.829Z,7.67
2018-12-24T22:36:35.008Z,7.40
2018-12-24T22:39:07.880Z,7.23
2018-12-24T22:41:38.697Z,7.80
2018-12-24T22:44:09.590Z,7.30
2018-12-24T22:46:40.033Z,6.90
2018-12-24T22:49:10.473Z,7.47
2018-12-24T22:51:40.939Z,6.10
2018-12-24T22:54:11.448Z,7.00
2018-12-24T22:56:42.399Z,7.63
2018-12-24T22:59:12.792Z,6.60
2018-12-24T23:01:43.234Z,7.17
2018-12-24T23:04:15.453Z,6.97
2018-12-24T23:06:47.611Z,6.77
2018-12-24T23:09:37.569Z,6.60
2018-12-24T23:12:08.007Z,6.33
2018-12-24T23:14:40.157Z,6.33
2018-12-24T23:17:10.624Z,6.40
2018-12-24T23:19:41.059Z,6.73
2018-12-24T23:22:31.020Z,5.80
2018-12-24T23:25:20.933Z,6.20
2018-12-24T23:27:51.416Z,6.30
2018-12-24T23:30:21.855Z,6.50
2018-12-24T23:32:52.769Z,5.50
2018-12-24T23:35:25.327Z,6.43
2018-12-24T23:38:15.953Z,6.77
2018-12-24T23:40:46.799Z,6.20
2018-12-24T23:43:17.722Z,6.93
2018-12-24T23:45:48.164Z,5.63
2018-12-24T23:48:18.635Z,5.83
2018-12-24T23:50:49.539Z,5.47
2018-12-24T23:53:20.016Z,5.87
2018-12-24T23:55:50.445Z,5.93
2018-12-24T23:58:20.877Z,6.23
